CYBR

Brandon Municipal Airport

Brandon, Manitoba, Canada

CYBR 200336Z 29009KT 15SM FEW023 SCT043 OVC092 13/12 A2943 RMK SC1SC2AC5 SLP974 DENSITY ALT 2100FT

Observed Flight Rules
Sep-20 @ 03:36 UTC (24 minutes ago)
 
Visual Flight Rules
Wind Visibility Clouds
290° at 9 knots 15 miles
  • Few at 2,300' AGL
  • Scattered at 4,300' AGL
  • Overcast at 9,200' AGL
Temperatures Readings
Current 13°C / 55°F
Dewpoint 12°C / 54°F
Humidity 94%
Altimeter 29.43" Hg
Pressure 997.4 hPa
Elevation 409
Observed Flight Rules
Sep-20 @ 03:36 UTC
(24 minutes ago)
 
VFR
Wind Visibility
290° at 9 knots 15 miles
Clouds
  • Few at 2,300' AGL
  • Scattered at 4,300' AGL
  • Overcast at 9,200' AGL
Temperature Dewpoint
13°C / 55°F 12°C / 54°F
Humidity Altimeter Pressure
94% 29.43" Hg 997.4 hPa